Time;durP1;ratioP1;P1;durP2;ratioP2;P2;SDS_P1;SDS_P2;PMS_P1;PMS_P2;Temp;Humidity;BMP_temperature;BMP_pressure;BME280_temperature;BME280_humidity;BME280_pressure;Samples;Min_cycle;Max_cycle;Signal;HPM_P1;HPM_P2
2022/04/04 00:00:13;;;;;;;6.82;4.10;;;;;;;-2.66;59.41;98119.19;5034013;28;20063;-77
2022/04/04 00:02:38;;;;;;;9.93;5.20;;;;;;;-2.71;57.65;98113.34;5031660;28;20094;-75
2022/04/04 00:05:04;;;;;;;6.72;4.30;;;;;;;-2.82;55.63;98112.94;5050014;28;20044;-77
2022/04/04 00:07:29;;;;;;;7.35;4.35;;;;;;;-2.83;56.42;98117.31;5034133;28;20516;-76
2022/04/04 00:09:54;;;;;;;6.75;4.25;;;;;;;-2.85;57.15;98118.28;5049293;28;20051;-72
2022/04/04 00:12:20;;;;;;;8.77;4.68;;;;;;;-2.84;57.32;98118.22;5047637;28;20376;-70
2022/04/04 00:14:45;;;;;;;9.98;5.30;;;;;;;-2.86;57.48;98114.84;5050801;28;20062;-76
2022/04/04 00:17:11;;;;;;;7.43;4.82;;;;;;;-2.85;58.58;98119.13;5055966;28;20063;-69
2022/04/04 00:19:36;;;;;;;5.68;3.70;;;;;;;-2.88;57.60;98124.47;5046080;28;20410;-70
2022/04/04 00:22:02;;;;;;;6.60;4.53;;;;;;;-2.86;57.62;98122.66;5051845;28;20036;-70
2022/04/04 00:24:29;;;;;;;5.93;3.90;;;;;;;-2.87;57.68;98126.16;5049989;28;20131;-70
2022/04/04 00:26:54;;;;;;;7.18;3.95;;;;;;;-2.89;57.69;98128.00;5047386;28;20119;-69
2022/04/04 00:29:19;;;;;;;8.35;4.43;;;;;;;-2.94;56.84;98130.81;5029538;28;20447;-69
2022/04/04 00:31:43;;;;;;;6.95;4.55;;;;;;;-2.98;56.15;98126.63;5046212;28;20036;-70
2022/04/04 00:34:08;;;;;;;9.07;4.50;;;;;;;-3.00;57.83;98123.22;5030101;28;20036;-69
2022/04/04 00:36:33;;;;;;;8.57;4.70;;;;;;;-3.01;58.72;98131.94;5052706;28;20255;-69
2022/04/04 00:38:58;;;;;;;9.82;4.82;;;;;;;-3.03;58.93;98125.09;5054939;28;20406;-70
2022/04/04 00:41:24;;;;;;;8.55;4.85;;;;;;;-3.04;58.92;98131.22;5053520;28;20097;-69
2022/04/04 00:43:52;;;;;;;6.13;3.60;;;;;;;-3.14;56.47;98127.28;5052520;28;20059;-71
2022/04/04 00:46:17;;;;;;;8.13;4.90;;;;;;;-3.19;57.55;98131.88;5032595;28;20506;-70
2022/04/04 00:48:42;;;;;;;7.78;4.72;;;;;;;-3.18;58.27;98136.16;5029288;28;20517;-70
2022/04/04 00:51:07;;;;;;;7.07;4.82;;;;;;;-3.19;58.53;98131.88;5049073;28;20040;-70
2022/04/04 00:53:32;;;;;;;7.63;4.75;;;;;;;-3.19;59.08;98134.47;5027811;28;20040;-70
2022/04/04 00:55:56;;;;;;;10.35;4.72;;;;;;;-3.21;59.91;98138.88;5034413;28;20031;-71
2022/04/04 00:58:22;;;;;;;6.05;4.13;;;;;;;-3.23;59.69;98140.72;5027645;28;20036;-70
2022/04/04 01:00:49;;;;;;;5.72;4.10;;;;;;;-3.24;59.05;98145.06;5047627;28;20052;-69
2022/04/04 01:03:15;;;;;;;7.53;4.07;;;;;;;-3.24;59.73;98141.63;5046315;28;20039;-70
2022/04/04 01:05:43;;;;;;;5.72;3.83;;;;;;;-3.26;59.40;98138.22;5048605;28;20039;-70
2022/04/04 01:08:08;;;;;;;6.95;4.22;;;;;;;-3.28;59.73;98137.44;5047247;28;20040;-70
2022/04/04 01:10:33;;;;;;;10.15;3.58;;;;;;;-3.28;59.55;98145.28;5032007;28;20062;-71
2022/04/04 01:12:58;;;;;;;8.88;5.25;;;;;;;-3.29;59.65;98144.41;5041086;28;20071;-71
2022/04/04 01:15:26;;;;;;;7.78;4.18;;;;;;;-3.31;59.49;98149.69;5051470;28;20032;-70
2022/04/04 01:17:51;;;;;;;5.40;3.60;;;;;;;-3.34;59.66;98141.97;5051262;28;20060;-68
2022/04/04 01:20:16;;;;;;;5.68;3.80;;;;;;;-3.32;59.92;98147.13;5032161;28;20050;-68
2022/04/04 01:22:50;;;;;;;6.32;3.75;;;;;;;-3.28;59.68;98153.09;5064543;28;20082;-69
2022/04/04 01:25:23;;;;;;;7.20;4.47;;;;;;;-3.29;59.31;98154.84;5066743;28;20039;-67
2022/04/04 01:27:48;;;;;;;5.20;3.50;;;;;;;-3.34;59.07;98152.41;5066919;28;20075;-69
2022/04/04 01:30:13;;;;;;;7.90;4.18;;;;;;;-3.36;59.92;98149.00;5067433;28;20043;-67
2022/04/04 01:32:39;;;;;;;5.70;3.55;;;;;;;-3.37;59.77;98159.47;5066190;28;20096;-68
2022/04/04 01:35:05;;;;;;;6.55;4.32;;;;;;;-3.39;58.30;98150.91;5048148;28;20060;-68
2022/04/04 01:37:30;;;;;;;7.05;4.18;;;;;;;-3.42;58.13;98149.25;5051271;28;20541;-66
2022/04/04 01:39:55;;;;;;;5.20;3.35;;;;;;;-3.43;58.97;98150.16;5063722;28;20303;-67
2022/04/04 01:42:19;;;;;;;5.82;3.88;;;;;;;-3.47;57.83;98147.72;5061816;28;20067;-67
2022/04/04 01:44:44;;;;;;;7.85;4.20;;;;;;;-3.46;59.56;98157.25;5061422;28;20072;-77
2022/04/04 01:47:10;;;;;;;4.53;3.28;;;;;;;-3.47;59.31;98166.81;5072602;28;20095;-80
2022/04/04 01:49:34;;;;;;;9.40;4.28;;;;;;;-3.47;60.00;98161.59;5063656;28;20051;-74
2022/04/04 01:51:59;;;;;;;6.07;4.60;;;;;;;-3.47;59.51;98156.41;5058207;28;20044;-74
2022/04/04 01:54:24;;;;;;;5.28;4.03;;;;;;;-3.46;60.48;98165.91;5057138;28;20044;-74
2022/04/04 01:56:49;;;;;;;6.53;3.75;;;;;;;-3.47;60.05;98155.53;5056768;28;20039;-74
2022/04/04 01:59:13;;;;;;;9.68;5.65;;;;;;;-3.48;60.40;98159.06;5059000;28;20522;-76
2022/04/04 02:01:39;;;;;;;7.82;5.00;;;;;;;-3.48;60.40;98167.72;5057037;28;20051;-73
2022/04/04 02:04:03;;;;;;;5.95;3.85;;;;;;;-3.49;60.00;98168.63;5058142;28;20069;-76
2022/04/04 02:06:28;;;;;;;7.40;4.30;;;;;;;-3.51;59.96;98170.47;5059705;28;20205;-74
2022/04/04 02:08:54;;;;;;;6.57;3.95;;;;;;;-3.51;60.48;98170.47;5058681;28;20525;-74
2022/04/04 02:11:20;;;;;;;6.43;3.45;;;;;;;-3.51;59.92;98173.06;5059338;28;20858;-75
2022/04/04 02:13:45;;;;;;;6.90;4.45;;;;;;;-3.53;59.64;98176.63;5057579;28;20495;-74
2022/04/04 02:16:11;;;;;;;7.85;4.57;;;;;;;-3.54;60.09;98170.59;5057118;28;20044;-74
2022/04/04 02:18:36;;;;;;;8.77;4.88;;;;;;;-3.54;59.63;98191.41;5056218;28;20066;-74
2022/04/04 02:21:02;;;;;;;5.05;3.58;;;;;;;-3.54;60.03;98180.16;5057847;28;20048;-77
2022/04/04 02:23:27;;;;;;;6.47;4.50;;;;;;;-3.54;60.11;98187.97;5057685;28;20135;-75
2022/04/04 02:25:55;;;;;;;7.53;4.50;;;;;;;-3.55;60.25;98181.91;5058891;28;20040;-75
2022/04/04 02:28:20;;;;;;;4.78;3.65;;;;;;;-3.56;60.34;98184.56;5040717;28;20040;-75
2022/04/04 02:30:49;;;;;;;9.88;4.50;;;;;;;-3.57;60.62;98191.53;5060022;28;20054;-74
2022/04/04 02:33:14;;;;;;;9.20;4.68;;;;;;;-3.61;59.67;98189.13;5060907;28;20032;-78
2022/04/04 02:35:39;;;;;;;8.20;4.50;;;;;;;-3.67;58.37;98183.22;5059078;28;20058;-74
2022/04/04 02:38:05;;;;;;;8.23;4.15;;;;;;;-3.69;58.83;98190.22;5050232;28;20127;-69
2022/04/04 02:40:32;;;;;;;8.32;5.05;;;;;;;-3.76;59.09;98188.78;5051278;28;20414;-74
2022/04/04 02:42:57;;;;;;;8.52;4.50;;;;;;;-3.78;59.57;98201.00;5056701;28;20062;-77
2022/04/04 02:45:22;;;;;;;6.18;3.97;;;;;;;-3.79;60.20;98207.09;5057031;28;20044;-75
2022/04/04 02:47:46;;;;;;;6.32;4.28;;;;;;;-3.79;60.43;98211.47;5054961;28;20149;-69
2022/04/04 02:50:12;;;;;;;11.60;4.85;;;;;;;-3.78;60.61;98210.56;5057130;28;20075;-76
2022/04/04 02:52:37;;;;;;;5.78;3.67;;;;;;;-3.80;61.17;98204.56;5052200;28;20127;-66
2022/04/04 02:56:28;;;;;;;7.97;4.35;;;;;;;-3.79;61.52;98209.72;5051568;28;20502;-73
2022/04/04 02:57:47;;;;;;;5.28;3.63;;;;;;;-3.77;61.09;98214.88;5036304;28;20047;-68
2022/04/04 03:00:13;;;;;;;10.02;4.85;;;;;;;-3.76;60.90;98216.56;5033541;28;20110;-75
2022/04/04 03:02:38;;;;;;;6.72;4.38;;;;;;;-3.75;61.25;98219.13;5012928;28;20044;-73
2022/04/04 03:05:03;;;;;;;6.80;4.22;;;;;;;-3.76;61.16;98222.63;5009504;28;20139;-70
2022/04/04 03:07:28;;;;;;;7.75;3.70;;;;;;;-3.75;60.93;98224.31;4999433;28;20040;-71
2022/04/04 03:09:53;;;;;;;10.63;4.85;;;;;;;-3.74;60.26;98230.38;5015324;28;20048;-72
2022/04/04 03:12:18;;;;;;;9.13;4.97;;;;;;;-3.74;57.99;98238.19;5032650;28;20048;-74
2022/04/04 03:14:44;;;;;;;6.15;4.10;;;;;;;-3.77;58.38;98241.75;5016439;28;20102;-76
2022/04/04 03:17:09;;;;;;;9.10;3.75;;;;;;;-3.79;57.93;98243.56;5032422;28;20040;-72
2022/04/04 03:19:34;;;;;;;6.22;4.10;;;;;;;-3.77;58.71;98246.13;5032813;28;20071;-74
2022/04/04 03:21:59;;;;;;;5.20;3.90;;;;;;;-3.76;59.39;98253.03;5033052;28;20055;-75
2022/04/04 03:24:23;;;;;;;8.50;4.25;;;;;;;-3.75;59.26;98254.72;5034239;28;20048;-73
2022/04/04 03:26:48;;;;;;;4.53;3.47;;;;;;;-3.77;58.14;98251.31;5035669;28;20526;-74
2022/04/04 03:29:13;;;;;;;7.20;4.30;;;;;;;-3.80;56.24;98259.22;5031506;28;20112;-74
2022/04/04 03:31:38;;;;;;;7.38;4.00;;;;;;;-3.79;57.60;98250.53;5042322;28;20042;-74
2022/04/04 03:34:04;;;;;;;9.85;4.55;;;;;;;-3.79;59.04;98256.56;5062462;28;20052;-72
2022/04/04 03:36:28;;;;;;;6.57;3.97;;;;;;;-3.75;59.91;98254.72;5043557;28;20052;-66
2022/04/04 03:38:53;;;;;;;7.35;4.60;;;;;;;-3.73;59.42;98258.13;5061560;28;20108;-68
2022/04/04 03:41:18;;;;;;;6.70;3.95;;;;;;;-3.70;59.07;98250.19;5060459;28;20051;-72
2022/04/04 03:43:43;;;;;;;7.53;3.85;;;;;;;-3.67;59.38;98247.47;5028951;28;20048;-72
2022/04/04 03:46:08;;;;;;;6.43;4.32;;;;;;;-3.64;59.08;98257.78;5061788;28;20032;-71
2022/04/04 03:48:32;;;;;;;5.97;4.13;;;;;;;-3.61;58.56;98255.03;5060606;28;20047;-70
2022/04/04 03:50:57;;;;;;;5.63;3.53;;;;;;;-3.57;58.94;98259.25;5060150;28;20052;-71
2022/04/04 03:53:22;;;;;;;7.03;4.00;;;;;;;-3.55;58.76;98257.44;5042391;28;20123;-70
2022/04/04 03:55:48;;;;;;;9.00;4.45;;;;;;;-3.52;59.19;98253.88;5059517;28;20131;-70
2022/04/04 03:58:13;;;;;;;7.75;3.83;;;;;;;-3.48;59.21;98258.03;5061384;28;20093;-73
2022/04/04 04:00:38;;;;;;;7.35;4.35;;;;;;;-3.43;59.10;98262.19;5045664;28;20052;-68
2022/04/04 04:03:03;;;;;;;8.57;4.32;;;;;;;-3.36;59.32;98262.81;5035187;28;20960;-68
2022/04/04 04:05:28;;;;;;;6.07;4.22;;;;;;;-3.31;59.17;98266.09;5058653;28;20048;-74
2022/04/04 04:07:53;;;;;;;9.73;5.18;;;;;;;-3.27;59.17;98272.88;5040760;28;20089;-71
2022/04/04 04:10:19;;;;;;;7.60;4.13;;;;;;;-3.21;60.19;98266.59;5057418;28;20134;-69
2022/04/04 04:12:45;;;;;;;7.78;4.25;;;;;;;-3.16;59.44;98272.50;5040390;28;20044;-69
2022/04/04 04:15:14;;;;;;;8.90;5.15;;;;;;;-3.09;58.88;98279.16;5057611;28;20074;-71
2022/04/04 04:17:39;;;;;;;6.95;4.45;;;;;;;-3.06;58.83;98271.22;5060325;28;20040;-70
2022/04/04 04:20:20;;;;;;;6.40;4.45;;;;;;;-3.00;58.22;98276.19;5025707;28;20117;-70
2022/04/04 04:22:46;;;;;;;6.07;4.45;;;;;;;-2.95;57.85;98277.72;5043204;28;20169;-71
2022/04/04 04:25:11;;;;;;;6.13;4.00;;;;;;;-2.91;57.15;98275.81;5061577;28;20044;-71
2022/04/04 04:27:36;;;;;;;7.47;5.43;;;;;;;-2.88;56.65;98273.09;5058271;28;20036;-70
2022/04/04 04:30:01;;;;;;;6.65;4.50;;;;;;;-2.83;56.51;98276.38;5060887;28;20130;-71
2022/04/04 04:32:27;;;;;;;9.77;4.97;;;;;;;-2.78;57.05;98282.25;5043678;28;20079;-69
2022/04/04 04:34:52;;;;;;;8.38;4.50;;;;;;;-2.72;57.01;98273.34;5043618;28;20036;-69
2022/04/04 04:37:18;;;;;;;7.03;4.50;;;;;;;-2.65;55.31;98277.41;5045862;28;20040;-70
2022/04/04 04:39:43;;;;;;;7.43;4.88;;;;;;;-2.60;54.34;98270.25;5044007;28;20044;-69
2022/04/04 04:42:08;;;;;;;6.03;4.00;;;;;;;-2.49;53.92;98281.09;5041773;28;20036;-69
2022/04/04 04:44:33;;;;;;;8.55;5.38;;;;;;;-2.41;52.32;98272.94;5041618;28;20387;-70
2022/04/04 04:46:58;;;;;;;7.05;4.40;;;;;;;-2.29;52.11;98281.13;5041684;28;20390;-70
2022/04/04 04:49:25;;;;;;;6.20;4.30;;;;;;;-2.14;53.86;98277.00;5042075;28;20054;-71
2022/04/04 04:51:50;;;;;;;8.02;4.60;;;;;;;-2.00;53.52;98272.03;5059564;28;20047;-69
2022/04/04 04:54:16;;;;;;;6.82;4.72;;;;;;;-1.84;53.25;98280.09;5024302;28;20044;-69
2022/04/04 04:56:41;;;;;;;6.88;3.42;;;;;;;-1.69;54.06;98282.00;5042320;28;20039;-69
2022/04/04 04:59:05;;;;;;;6.63;4.50;;;;;;;-1.56;52.81;98279.69;5026459;28;20048;-70
2022/04/04 05:01:30;;;;;;;9.98;5.18;;;;;;;-1.50;50.69;98285.53;5059688;28;20189;-69
2022/04/04 05:03:55;;;;;;;5.63;4.10;;;;;;;-1.41;51.50;98286.00;5059574;28;20044;-69
2022/04/04 05:06:20;;;;;;;15.07;4.63;;;;;;;-1.44;49.59;98281.78;5042521;28;20115;-71
2022/04/04 05:08:44;;;;;;;7.20;4.53;;;;;;;-1.40;51.29;98285.94;5060053;28;20525;-70
2022/04/04 05:11:09;;;;;;;5.78;3.97;;;;;;;-1.37;52.09;98283.22;5060579;28;20062;-71
2022/04/04 05:13:34;;;;;;;10.05;5.10;;;;;;;-1.35;50.76;98283.97;5026794;28;20383;-72
2022/04/04 05:15:59;;;;;;;6.97;4.50;;;;;;;-1.32;51.34;98290.81;5044021;28;20418;-71
2022/04/04 05:18:23;;;;;;;8.77;5.00;;;;;;;-1.24;52.02;98293.97;5061607;28;20055;-70
2022/04/04 05:20:48;;;;;;;11.18;5.57;;;;;;;-1.12;50.91;98291.59;5040568;28;20047;-69
2022/04/04 05:23:13;;;;;;;6.18;4.65;;;;;;;-0.97;50.39;98283.97;5055498;28;20055;-71
2022/04/04 05:25:38;;;;;;;9.98;5.32;;;;;;;-0.75;49.47;98284.66;5038909;28;20043;-71
2022/04/04 05:28:03;;;;;;;7.88;4.47;;;;;;;-0.49;48.82;98283.41;5038633;28;20040;-71
2022/04/04 05:30:28;;;;;;;8.13;4.68;;;;;;;-0.21;49.95;98282.88;5056621;28;20050;-71
2022/04/04 05:32:53;;;;;;;8.82;4.05;;;;;;;0.09;49.31;98281.38;5038672;28;20075;-70
2022/04/04 05:35:19;;;;;;;6.50;4.75;;;;;;;0.36;47.47;98281.69;5056089;28;20119;-71
2022/04/04 05:37:45;;;;;;;8.63;5.22;;;;;;;0.60;47.10;98276.94;5038644;28;20422;-70
2022/04/04 05:40:10;;;;;;;11.70;4.65;;;;;;;0.80;47.00;98278.50;5038848;28;20406;-70
2022/04/04 05:42:35;;;;;;;7.03;4.30;;;;;;;0.92;47.11;98276.06;5038532;28;20487;-71
2022/04/04 05:45:00;;;;;;;8.10;4.88;;;;;;;1.02;46.50;98269.38;5039170;28;20461;-75
2022/04/04 05:47:26;;;;;;;6.85;4.70;;;;;;;1.15;45.79;98271.34;5040126;28;20043;-73
2022/04/04 05:49:50;;;;;;;10.38;5.65;;;;;;;1.36;44.61;98278.00;5058338;28;20048;-73
2022/04/04 05:52:16;;;;;;;12.02;5.40;;;;;;;1.61;45.30;98278.31;5046237;28;20050;-70
2022/04/04 05:54:54;;;;;;;10.32;4.93;;;;;;;1.88;44.21;98285.56;5062955;28;20406;-71
2022/04/04 05:57:23;;;;;;;14.00;5.22;;;;;;;2.18;42.82;98284.59;5062411;28;20040;-72
2022/04/04 05:59:47;;;;;;;8.48;5.18;;;;;;;2.45;42.69;98286.53;5021812;28;20075;-71
2022/04/04 06:02:13;;;;;;;8.75;4.63;;;;;;;2.72;43.81;98279.56;5038534;28;20043;-72
2022/04/04 06:04:37;;;;;;;9.48;5.35;;;;;;;2.98;43.76;98283.22;5056550;28;20054;-72
2022/04/04 06:07:02;;;;;;;8.05;5.28;;;;;;;3.23;42.87;98279.91;5056471;28;20044;-72
2022/04/04 06:09:27;;;;;;;9.30;4.47;;;;;;;3.41;43.30;98272.59;5021534;28;20058;-72
2022/04/04 06:11:52;;;;;;;9.20;5.43;;;;;;;3.56;42.46;98276.91;5056700;28;20480;-72
2022/04/04 06:14:16;;;;;;;12.40;5.90;;;;;;;3.68;38.77;98273.47;5021558;28;20130;-73
2022/04/04 06:16:41;;;;;;;10.85;5.72;;;;;;;3.85;40.28;98275.81;5021508;28;20485;-73
2022/04/04 06:19:06;;;;;;;10.70;5.88;;;;;;;3.99;40.07;98278.41;5038717;28;20137;-75
2022/04/04 06:21:31;;;;;;;12.50;5.93;;;;;;;4.11;40.89;98279.38;5057219;28;20044;-74
2022/04/04 06:23:55;;;;;;;15.15;6.38;;;;;;;4.31;40.66;98286.78;5056208;28;20032;-74
2022/04/04 06:26:20;;;;;;;17.40;5.90;;;;;;;4.61;39.90;98286.50;5006191;28;20050;-75
2022/04/04 06:28:45;;;;;;;8.27;4.68;;;;;;;4.84;39.54;98278.78;5022646;28;20051;-76
2022/04/04 06:31:10;;;;;;;13.30;5.47;;;;;;;5.11;40.67;98282.94;5039048;28;20044;-74
2022/04/04 06:33:35;;;;;;;11.00;5.63;;;;;;;5.30;38.93;98282.50;5022837;28;20167;-74
2022/04/04 06:36:00;;;;;;;13.00;5.68;;;;;;;5.33;38.82;98282.25;5057097;28;20158;-74
2022/04/04 06:38:24;;;;;;;8.48;5.68;;;;;;;5.36;38.66;98284.69;5038272;28;20391;-72
2022/04/04 06:40:52;;;;;;;13.02;5.90;;;;;;;5.39;38.70;98287.13;5056779;28;20048;-74
2022/04/04 06:43:17;;;;;;;11.00;5.65;;;;;;;5.37;39.03;98283.75;5056837;28;20052;-74
2022/04/04 06:45:42;;;;;;;11.02;5.88;;;;;;;5.27;38.61;98284.50;5056278;28;20137;-74
2022/04/04 06:48:07;;;;;;;12.13;5.88;;;;;;;5.06;36.61;98293.03;5022382;28;20044;-74
2022/04/04 06:50:32;;;;;;;12.27;6.22;;;;;;;4.88;36.52;98290.81;5038930;28;20039;-75
2022/04/04 06:52:57;;;;;;;10.30;6.20;;;;;;;4.83;38.61;98292.94;5022640;28;20043;-75
2022/04/04 06:55:23;;;;;;;10.57;6.05;;;;;;;4.90;39.26;98294.19;5041640;28;20046;-74
2022/04/04 06:57:48;;;;;;;11.70;5.45;;;;;;;5.11;37.72;98292.66;5023322;28;20474;-75
2022/04/04 07:00:16;;;;;;;14.35;6.60;;;;;;;5.43;37.50;98291.22;5038065;28;20478;-76
2022/04/04 07:02:40;;;;;;;11.85;5.90;;;;;;;5.82;37.35;98291.91;5020480;28;20394;-72
2022/04/04 07:05:06;;;;;;;12.25;5.32;;;;;;;6.23;35.52;98291.50;5019977;28;20387;-72
2022/04/04 07:07:32;;;;;;;12.75;6.85;;;;;;;6.63;34.87;98293.78;5055103;28;20036;-72
2022/04/04 07:09:57;;;;;;;11.30;5.65;;;;;;;6.86;34.09;98292.84;5054230;28;20052;-74
2022/04/04 07:12:22;;;;;;;13.27;5.43;;;;;;;7.02;34.33;98279.22;5037138;28;20051;-74
2022/04/04 07:14:47;;;;;;;9.32;4.93;;;;;;;7.27;35.09;98287.78;5037116;28;20048;-74
2022/04/04 07:17:11;;;;;;;11.80;5.93;;;;;;;7.60;33.35;98284.22;5036724;28;20121;-73
2022/04/04 07:19:36;;;;;;;9.45;5.55;;;;;;;8.08;32.33;98283.00;5055143;28;20055;-72
2022/04/04 07:22:02;;;;;;;14.60;5.90;;;;;;;8.70;32.96;98281.22;5020246;28;20090;-73
2022/04/04 07:24:27;;;;;;;17.42;5.78;;;;;;;9.18;30.68;98272.63;5036697;28;20040;-71
2022/04/04 07:26:53;;;;;;;13.07;5.45;;;;;;;9.33;30.80;98271.31;5019653;28;20085;-72
2022/04/04 07:29:17;;;;;;;8.98;4.88;;;;;;;9.27;30.68;98273.63;5053736;28;20506;-72
2022/04/04 07:31:42;;;;;;;9.25;5.28;;;;;;;9.18;28.48;98271.78;5053505;28;20517;-71
2022/04/04 07:34:07;;;;;;;11.57;5.53;;;;;;;9.15;28.12;98280.03;5054978;28;20048;-71
2022/04/04 07:36:32;;;;;;;8.40;4.80;;;;;;;9.10;29.95;98270.66;5053579;28;20044;-70
2022/04/04 07:38:57;;;;;;;8.13;5.07;;;;;;;9.24;28.18;98273.94;5054769;28;20055;-72
2022/04/04 07:41:22;;;;;;;7.32;4.63;;;;;;;9.23;25.94;98270.44;5036721;28;20510;-71
2022/04/04 07:43:47;;;;;;;8.00;4.03;;;;;;;9.05;27.80;98264.88;5053477;28;20140;-70
2022/04/04 07:46:11;;;;;;;9.75;4.30;;;;;;;8.93;28.79;98267.75;5054861;28;20035;-72
2022/04/04 07:48:38;;;;;;;7.95;4.57;;;;;;;8.99;26.87;98277.88;5036649;28;20043;-73
2022/04/04 07:51:02;;;;;;;6.43;4.00;;;;;;;9.27;27.14;98269.16;5036666;28;20039;-71
2022/04/04 07:53:27;;;;;;;7.55;4.13;;;;;;;9.68;27.21;98262.00;5019396;28;20048;-72
2022/04/04 07:55:52;;;;;;;7.75;3.92;;;;;;;10.07;27.00;98262.88;5019636;28;20040;-71
2022/04/04 07:58:17;;;;;;;6.18;4.22;;;;;;;10.30;25.35;98260.78;5054616;28;20135;-72
2022/04/04 08:00:42;;;;;;;14.57;5.43;;;;;;;10.49;24.65;98264.28;5054855;28;20055;-72
2022/04/04 08:03:07;;;;;;;12.30;6.53;;;;;;;10.92;25.20;98260.25;5054971;28;20077;-73
2022/04/04 08:05:32;;;;;;;10.15;5.80;;;;;;;11.29;24.56;98261.06;5036561;28;20068;-73
2022/04/04 08:07:57;;;;;;;9.60;5.30;;;;;;;11.47;24.90;98263.81;5036180;28;20174;-72
2022/04/04 08:10:22;;;;;;;7.95;4.80;;;;;;;11.76;26.49;98260.13;5053236;28;20109;-72
2022/04/04 08:12:49;;;;;;;7.93;4.50;;;;;;;12.12;24.49;98261.84;5019528;28;20074;-72
2022/04/04 08:15:14;;;;;;;10.18;4.68;;;;;;;12.26;22.53;98249.78;5036247;28;20040;-72
2022/04/04 08:17:39;;;;;;;6.45;3.70;;;;;;;12.47;23.32;98255.63;5006048;28;20059;-72
2022/04/04 08:20:05;;;;;;;7.35;4.70;;;;;;;13.08;24.99;98255.53;5058169;28;20047;-71
2022/04/04 08:22:30;;;;;;;7.47;4.32;;;;;;;14.06;23.49;98245.16;5057652;28;20036;-71
2022/04/04 08:24:54;;;;;;;7.80;5.63;;;;;;;14.56;19.64;98255.75;5056522;28;20043;-73
2022/04/04 08:27:19;;;;;;;10.80;5.20;;;;;;;14.42;20.50;98259.13;5040146;28;20044;-72
2022/04/04 08:29:44;;;;;;;6.75;4.38;;;;;;;14.29;19.66;98250.72;5040100;28;20578;-71
2022/04/04 08:32:11;;;;;;;5.18;4.18;;;;;;;14.31;21.10;98254.06;5040422;28;20123;-71
2022/04/04 08:34:36;;;;;;;8.20;4.93;;;;;;;14.71;19.97;98253.25;5035052;28;20028;-70
2022/04/04 08:37:01;;;;;;;8.43;4.32;;;;;;;15.11;20.52;98255.03;5032311;28;20044;-71
2022/04/04 08:39:26;;;;;;;6.50;4.53;;;;;;;14.97;19.28;98236.94;5046037;28;20514;-71
2022/04/04 08:41:55;;;;;;;9.00;4.13;;;;;;;15.36;21.08;98250.38;5025648;28;20052;-72
2022/04/04 08:44:21;;;;;;;8.00;4.63;;;;;;;15.75;21.44;98250.44;5033023;28;20127;-71
2022/04/04 08:46:47;;;;;;;9.65;5.25;;;;;;;16.36;20.07;98238.78;5039009;28;20047;-73
2022/04/04 08:49:12;;;;;;;6.57;4.72;;;;;;;17.20;20.50;98242.19;5039907;28;20040;-74
2022/04/04 08:51:37;;;;;;;5.53;3.95;;;;;;;18.21;19.29;98239.50;5043527;28;20102;-74
2022/04/04 08:54:02;;;;;;;6.88;4.10;;;;;;;19.08;19.59;98250.88;5056601;28;20036;-74
2022/04/04 08:56:27;;;;;;;6.80;4.63;;;;;;;19.14;16.83;98238.44;5055171;28;20039;-76
2022/04/04 08:58:54;;;;;;;6.30;4.57;;;;;;;19.58;18.81;98248.91;5038540;28;20039;-74
2022/04/04 09:01:20;;;;;;;7.15;4.93;;;;;;;20.21;17.35;98241.41;5022346;28;20044;-72
2022/04/04 09:03:49;;;;;;;10.88;5.20;;;;;;;20.18;16.28;98237.28;5038582;28;20127;-73
2022/04/04 09:06:14;;;;;;;5.60;4.72;;;;;;;20.90;16.59;98232.97;5055763;28;20055;-74
2022/04/04 09:08:44;;;;;;;7.10;4.70;;;;;;;21.32;13.92;98231.69;5056129;28;20044;-73
2022/04/04 09:11:09;;;;;;;8.50;4.93;;;;;;;20.84;14.92;98239.22;5053284;28;20395;-72
2022/04/04 09:13:34;;;;;;;6.65;4.80;;;;;;;21.15;15.75;98233.13;5038272;28;20479;-73
2022/04/04 09:16:06;;;;;;;8.43;4.80;;;;;;;21.86;14.93;98231.28;5038513;28;20077;-73
2022/04/04 09:18:37;;;;;;;6.43;4.72;;;;;;;22.85;15.12;98238.84;5056831;28;20494;-74
2022/04/04 09:21:04;;;;;;;5.70;3.72;;;;;;;23.80;15.34;98247.50;5038047;28;20417;-73
2022/04/04 09:23:33;;;;;;;4.60;3.30;;;;;;;23.72;12.47;98242.34;5038140;28;20070;-66
2022/04/04 09:26:00;;;;;;;3.75;3.45;;;;;;;23.25;14.07;98246.63;5056398;28;20043;-67
2022/04/04 09:28:24;;;;;;;3.08;2.88;;;;;;;23.26;14.69;98246.38;5038655;28;20079;-67
2022/04/04 09:31:07;;;;;;;3.47;2.90;;;;;;;24.14;15.40;98244.13;5057622;28;20059;-67
2022/04/04 09:33:38;;;;;;;3.70;3.28;;;;;;;23.85;12.22;98248.47;5056795;28;20086;-69
2022/04/04 09:36:04;;;;;;;4.28;2.88;;;;;;;23.93;14.52;98251.97;5038801;28;20040;-68
2022/04/04 09:38:30;;;;;;;3.08;2.78;;;;;;;24.49;14.67;98249.72;5056994;28;20468;-67
2022/04/04 09:40:55;;;;;;;3.47;3.17;;;;;;;24.84;13.56;98251.69;5038787;28;20065;-74
2022/04/04 09:43:20;;;;;;;5.70;4.35;;;;;;;24.32;12.76;98248.72;5056594;28;20502;-69
2022/04/04 09:45:46;;;;;;;6.90;4.97;;;;;;;24.67;13.76;98243.38;5038609;28;20043;-72
2022/04/04 09:48:11;;;;;;;5.50;4.40;;;;;;;23.86;12.77;98244.69;5057109;28;20375;-73
2022/04/04 09:50:42;;;;;;;5.07;3.85;;;;;;;23.22;12.80;98247.06;5057030;28;20051;-72
2022/04/04 09:53:11;;;;;;;4.38;3.90;;;;;;;23.77;13.47;98245.25;5038638;28;20736;-72
2022/04/04 09:55:38;;;;;;;4.68;3.92;;;;;;;24.75;13.49;98248.47;5056919;28;20140;-72
2022/04/04 09:58:06;;;;;;;4.35;3.80;;;;;;;24.93;12.43;98247.59;5039405;28;20044;-72
2022/04/04 10:00:31;;;;;;;3.80;3.50;;;;;;;25.34;13.60;98243.91;5021788;28;20067;-72
2022/04/04 10:02:58;;;;;;;6.13;3.88;;;;;;;26.20;12.98;98255.84;5037963;28;20371;-73
2022/04/04 10:05:25;;;;;;;4.47;3.65;;;;;;;26.87;11.49;98245.91;5037934;28;20444;-73
2022/04/04 10:07:52;;;;;;;3.40;3.10;;;;;;;26.85;10.61;98250.81;5037758;28;20070;-66
2022/04/04 10:10:17;;;;;;;6.20;3.20;;;;;;;27.24;11.39;98253.63;5037997;28;20064;-65
2022/04/04 10:12:43;;;;;;;4.18;3.80;;;;;;;27.63;10.87;98247.13;5055669;28;20468;-64
2022/04/04 10:15:09;;;;;;;4.47;3.35;;;;;;;27.98;11.47;98256.91;5037474;28;20253;-65
2022/04/04 10:17:33;;;;;;;4.40;3.20;;;;;;;26.64;11.91;98255.06;5055936;28;20105;-65
2022/04/04 10:19:58;;;;;;;5.57;3.40;;;;;;;23.80;12.33;98244.78;5056700;28;20035;-65
2022/04/04 10:22:23;;;;;;;4.10;3.17;;;;;;;20.85;14.02;98252.56;5056130;28;20039;-65
2022/04/04 10:24:49;;;;;;;3.88;3.00;;;;;;;19.27;15.97;98251.22;5055626;28;20047;-67
2022/04/04 10:27:20;;;;;;;3.22;2.72;;;;;;;17.61;16.61;98250.59;5020679;28;20047;-69
2022/04/04 10:29:47;;;;;;;3.90;2.67;;;;;;;15.50;17.09;98252.34;5056265;28;20059;-68
2022/04/04 10:32:23;;;;;;;4.20;2.75;;;;;;;15.01;18.68;98252.50;5055474;28;20071;-66
2022/04/04 10:34:47;;;;;;;3.50;2.90;;;;;;;14.15;21.20;98250.38;5037660;28;20569;-68
2022/04/04 10:37:14;;;;;;;3.17;2.70;;;;;;;13.54;20.67;98236.53;5055549;28;20391;-68
2022/04/04 10:39:44;;;;;;;3.35;2.85;;;;;;;13.06;20.25;98246.81;5055100;28;20040;-66
2022/04/04 10:42:32;;;;;;;3.92;3.00;;;;;;;12.22;21.66;98249.22;5036961;28;20627;-67
2022/04/04 10:45:08;;;;;;;4.05;3.05;;;;;;;11.50;21.65;98249.31;5036856;28;20044;-68
2022/04/04 10:47:37;;;;;;;3.78;2.35;;;;;;;11.16;21.95;98241.06;5037155;28;20036;-66
2022/04/04 10:50:22;;;;;;;2.67;2.30;;;;;;;10.82;22.42;98248.78;5020415;28;20035;-65
2022/04/04 10:52:47;;;;;;;3.35;2.00;;;;;;;10.40;23.10;98248.28;5044845;28;20048;-67
2022/04/04 10:55:14;;;;;;;2.40;2.17;;;;;;;10.28;24.56;98244.94;5179848;22;20034;31
2022/04/04 10:57:42;;;;;;;3.80;2.55;;;;;;;10.15;24.25;98247.03;4979249;28;20490;-72
2022/04/04 11:00:07;;;;;;;3.85;2.85;;;;;;;9.74;24.22;98237.50;5012149;28;20486;-69
2022/04/04 11:02:52;;;;;;;5.75;2.92;;;;;;;9.14;23.45;98231.38;5015775;28;20049;-69
2022/04/04 11:08:00;;;;;;;6.82;3.53;;;;;;;8.51;24.67;98237.75;4998926;28;20037;-69
2022/04/04 11:10:43;;;;;;;3.78;2.92;;;;;;;8.22;25.61;98241.06;4989326;28;20052;-70
2022/04/04 11:13:11;;;;;;;4.85;2.90;;;;;;;7.84;24.83;98238.09;5019802;28;20099;-70
2022/04/04 11:15:54;;;;;;;3.60;2.75;;;;;;;7.85;24.77;98247.75;5012384;28;20044;-69
2022/04/04 11:18:19;;;;;;;3.85;3.00;;;;;;;7.46;26.03;98236.75;5007938;28;20521;-68
2022/04/04 11:20:50;;;;;;;4.07;2.97;;;;;;;7.52;26.79;98241.59;5006424;28;20045;-70
2022/04/04 11:23:15;;;;;;;7.53;3.08;;;;;;;7.31;26.41;98237.19;4989147;28;20041;-70
2022/04/04 11:26:08;;;;;;;4.93;3.17;;;;;;;7.07;26.08;98235.53;4996608;28;20196;-69
2022/04/04 11:28:36;;;;;;;3.72;2.10;;;;;;;6.79;26.86;98236.84;4999364;28;20089;-69
2022/04/04 11:31:09;;;;;;;4.20;2.78;;;;;;;6.73;26.97;98234.69;4998290;28;20090;-68